LEMH Airport Information

Runway Information
Runway 01L Length 7710 ft width 148 ft
Elevation 277 ft Threshold 0 ft Heading 9
Runway 19R Length 7710 ft Width 148 ft
Elevation 298 ft Threshold 0 ft Heading 189
Runway 01R Length 6890 ft width 148 ft
Elevation 272 ft Threshold 0 ft Heading 9
Runway 19L Length 6890 ft Width 148 ft
Elevation 298 ft Threshold 0 ft Heading 189
Airport Frequencies
Type APP Name APP Frequency 119.65 MHZ
Type ATIS Name ATIS Frequency 112.6 MHZ
Type GND Name GND Frequency 121.75 MHZ
Type TWR Name TWR Frequency 118.2 MHZ
Airport Navaids
Type VOR-DME Name Menorca Frequency 112600 KHZ
Type NDB Name Menorca Frequency 344 KHZ
Airport Weather Information & NOTAM
ADDS - METARS form results

(1051 UTC 18 January 2022)
Data provider http://aviationweather.gov/metar/data/
 
METAR text: LEMH 181030Z 24005KT 190V330 CAVOK 13/03 Q1032
Conditions at: LEMH (MAHON/MENORCA IS, ES) observed 1030 UTC 18 January 2022
Temperature: 13.0°C (55°F)
Dewpoint: 3.0°C (37°F) [RH = 51%]
Pressure (altimeter): 30.47 inches Hg (1032.0 mb)
Winds: from the WSW (240 degrees) at 6 MPH (5 knots; 2.6 m/s)
Visibility: 6 or more miles (10+ km)
Ceiling: ceiling and visibility are OK
Clouds: unknown
Weather: no significant weather observed at this time

METAR text: LEMH 181000Z 26004KT 220V310 CAVOK 13/03 Q1032
Conditions at: LEMH (MAHON/MENORCA IS, ES) observed 1000 UTC 18 January 2022
Temperature: 13.0°C (55°F)
Dewpoint: 3.0°C (37°F) [RH = 51%]
Pressure (altimeter): 30.47 inches Hg (1032.0 mb)
Winds: from the W (260 degrees) at 5 MPH (4 knots; 2.1 m/s)
Visibility: 6 or more miles (10+ km)
Ceiling: ceiling and visibility are OK
Clouds: unknown
Weather: no significant weather observed at this time

Forecast for: LEMH (MAHON/MENORCA IS, ES)
Text: TAF LEMH 180800Z 1809/1909 33006KT CAVOK TX15/1812Z TN04/1906Z
Forecast period: 0900 UTC 18 January 2022 to 0900 UTC 19 January 2022
Forecast type: FROM: standard forecast or significant change
Winds: from the NNW (330 degrees) at 7 MPH (6 knots; 3.1 m/s)
Visibility: 6 or more miles (10+ km)
Ceiling: unknown
Clouds: missing
Weather: no significant weather forecast for this period
Text: TEMPO 1810/1818 27010KT
Forecast period: 1000 to 1800 UTC 18 January 2022
Forecast type: TEMPORARY: The following changes expected for less than half the time period
Winds: from the W (270 degrees) at 12 MPH (10 knots; 5.1 m/s)
Visibility: missing
Ceiling: unknown
Clouds: missing
Weather: no significant weather forecast for this period